Terminal Aerodrome Forecast
Issued by NWS

Home | Current Version | Previous Version | Text Only | Print | Product List | Glossary On
Versions: 1 2 3 4 5 6 7 8 9 10 11 12 13 14 15 16
000
FTUS43 KGRR 231400 AAA
TAFMKG
TAF AMD
KMKG 231418Z 2314/2412 02012KT P6SM SCT020
      TEMPO 2315/2316 BKN020
     FM231600 36011G22KT P6SM SCT035
     FM240000 01004KT P6SM SKC=

USA.gov is the U.S. government's official web portal to all federal, state and local government web resources and services.